createdAt,value
2023-05-08T00:00:56.880Z,4.48
2023-05-08T00:04:09.872Z,4.10
2023-05-08T00:07:22.488Z,4.43
2023-05-08T00:10:35.921Z,4.13
2023-05-08T00:13:48.056Z,3.85
2023-05-08T00:17:00.300Z,3.60
2023-05-08T00:20:15.696Z,3.70
2023-05-08T00:23:28.021Z,3.80
2023-05-08T00:26:42.571Z,3.55
2023-05-08T00:29:56.767Z,3.30
2023-05-08T00:33:09.533Z,3.28
2023-05-08T00:36:22.071Z,3.15
2023-05-08T00:39:34.997Z,3.33
2023-05-08T00:42:47.327Z,3.85
2023-05-08T00:46:00.614Z,4.10
2023-05-08T00:49:14.884Z,3.05
2023-05-08T00:52:27.840Z,3.48
2023-05-08T00:55:41.084Z,3.53
2023-05-08T00:58:54.898Z,3.75
2023-05-08T01:02:08.336Z,3.93
2023-05-08T01:05:21.326Z,3.68
2023-05-08T01:08:34.122Z,3.10
2023-05-08T01:11:51.621Z,3.20
2023-05-08T01:15:12.888Z,3.43
2023-05-08T01:18:31.326Z,3.60
2023-05-08T01:21:50.753Z,3.58
2023-05-08T01:25:51.030Z,3.48
2023-05-08T01:29:50.596Z,3.95
2023-05-08T01:33:07.957Z,2.80
2023-05-08T01:36:28.289Z,3.40
2023-05-08T01:39:48.214Z,3.05
2023-05-08T01:43:17.807Z,3.10
2023-05-08T01:46:33.347Z,3.83
2023-05-08T01:49:50.735Z,3.58
2023-05-08T01:53:10.183Z,3.30
2023-05-08T01:56:27.297Z,3.68
2023-05-08T01:59:43.187Z,3.18
2023-05-08T02:02:58.442Z,3.13
2023-05-08T02:06:12.849Z,3.25
2023-05-08T02:09:27.502Z,3.00
2023-05-08T02:12:42.785Z,3.15
2023-05-08T02:15:57.893Z,3.10
2023-05-08T02:19:12.538Z,3.48
2023-05-08T02:22:26.015Z,3.18
2023-05-08T02:25:39.698Z,3.00
2023-05-08T02:28:54.700Z,3.63
2023-05-08T02:32:10.032Z,3.55
2023-05-08T02:35:24.539Z,3.98
2023-05-08T02:38:39.001Z,4.48
2023-05-08T02:41:52.033Z,4.00
2023-05-08T02:45:04.400Z,3.68
2023-05-08T02:48:23.033Z,4.00
2023-05-08T02:51:41.755Z,3.73
2023-05-08T02:55:03.176Z,3.45
2023-05-08T02:58:23.697Z,3.70
2023-05-08T03:01:42.751Z,3.50
2023-05-08T03:04:59.980Z,3.35
2023-05-08T03:08:18.323Z,3.28
2023-05-08T03:11:36.240Z,3.40
2023-05-08T03:14:54.968Z,3.78
2023-05-08T03:18:14.004Z,3.20
2023-05-08T03:21:29.075Z,3.78
2023-05-08T03:24:44.635Z,3.50
2023-05-08T03:27:59.109Z,4.03
2023-05-08T03:31:17.151Z,3.90
2023-05-08T03:34:31.526Z,3.93
2023-05-08T03:37:44.024Z,3.63
2023-05-08T03:40:56.993Z,3.70
2023-05-08T03:44:11.393Z,3.85
2023-05-08T03:47:26.367Z,3.60
2023-05-08T03:50:41.694Z,3.78
2023-05-08T03:53:55.350Z,4.83
2023-05-08T03:57:09.234Z,3.48
2023-05-08T04:00:28.926Z,4.05
2023-05-08T04:03:56.835Z,4.10
2023-05-08T04:07:15.215Z,3.88
2023-05-08T04:10:35.305Z,4.08
2023-05-08T04:13:54.368Z,4.03
2023-05-08T04:17:13.962Z,3.75
2023-05-08T04:20:31.007Z,3.48
2023-05-08T04:23:48.182Z,3.60
2023-05-08T04:27:01.012Z,3.83
2023-05-08T04:30:16.744Z,3.90
2023-05-08T04:33:29.635Z,4.20
2023-05-08T04:36:42.295Z,3.40
2023-05-08T04:39:58.500Z,4.03
2023-05-08T04:43:11.680Z,3.75
2023-05-08T04:46:24.892Z,3.90
2023-05-08T04:49:37.234Z,4.00
2023-05-08T04:52:49.882Z,3.43
2023-05-08T04:56:02.489Z,4.18
2023-05-08T04:59:16.070Z,3.98
2023-05-08T05:02:31.625Z,3.75
2023-05-08T05:05:45.258Z,4.30
2023-05-08T05:08:58.068Z,4.20
2023-05-08T05:12:11.277Z,3.80
2023-05-08T05:15:23.812Z,4.10
2023-05-08T05:18:36.048Z,4.28
2023-05-08T05:21:49.154Z,3.78
2023-05-08T05:25:01.320Z,4.20
2023-05-08T05:28:14.102Z,8.10
2023-05-08T05:31:26.251Z,9.58
2023-05-08T05:34:38.899Z,4.25
2023-05-08T05:37:51.301Z,4.58
2023-05-08T05:41:03.692Z,4.50
2023-05-08T05:44:16.050Z,3.75
2023-05-08T05:47:28.829Z,4.33
2023-05-08T05:50:41.925Z,30.38
2023-05-08T05:53:57.064Z,10.00
2023-05-08T05:57:09.353Z,4.60
2023-05-08T06:00:23.774Z,4.23
2023-05-08T06:03:37.950Z,14.13
2023-05-08T06:06:50.296Z,11.18
2023-05-08T06:10:02.596Z,4.30
2023-05-08T06:13:15.872Z,3.65
2023-05-08T06:16:28.438Z,4.03
2023-05-08T06:19:41.763Z,3.48
2023-05-08T06:22:54.032Z,3.35
2023-05-08T06:26:06.460Z,3.78
2023-05-08T06:29:18.876Z,3.90
2023-05-08T06:32:31.294Z,3.90
2023-05-08T06:35:43.514Z,3.73
2023-05-08T06:38:55.637Z,3.55
2023-05-08T06:42:08.675Z,3.48
2023-05-08T06:45:23.327Z,3.60
2023-05-08T06:48:35.489Z,24.38
2023-05-08T06:51:47.638Z,14.80
2023-05-08T06:54:59.838Z,6.48
2023-05-08T06:58:11.815Z,3.95
2023-05-08T07:01:24.377Z,3.30
2023-05-08T07:04:37.303Z,3.40
2023-05-08T07:07:49.789Z,3.15
2023-05-08T07:11:01.788Z,3.30
2023-05-08T07:14:13.838Z,3.20
2023-05-08T07:17:26.020Z,3.15
2023-05-08T07:20:38.527Z,17.20
2023-05-08T07:23:51.990Z,5.08
2023-05-08T07:27:04.189Z,8.83
2023-05-08T07:30:19.739Z,3.00
2023-05-08T07:33:31.913Z,2.70
2023-05-08T07:36:44.568Z,3.00
2023-05-08T07:39:57.000Z,2.80
2023-05-08T07:43:09.828Z,3.33
2023-05-08T07:46:26.330Z,13.18
2023-05-08T07:49:38.630Z,6.28
2023-05-08T07:52:51.124Z,10.28
2023-05-08T07:56:03.345Z,3.73
2023-05-08T07:59:15.529Z,5.05
2023-05-08T08:02:27.857Z,3.03
2023-05-08T08:05:42.393Z,3.18
2023-05-08T08:08:54.578Z,3.78
2023-05-08T08:12:06.812Z,3.60
2023-05-08T08:15:22.067Z,3.40
2023-05-08T08:18:34.281Z,10.25
2023-05-08T08:21:50.453Z,9.45
2023-05-08T08:25:04.094Z,4.33
2023-05-08T08:28:18.168Z,4.13
2023-05-08T08:31:30.570Z,3.43
2023-05-08T08:34:43.221Z,3.18
2023-05-08T08:37:55.528Z,3.08
2023-05-08T08:41:07.970Z,3.03
2023-05-08T08:44:22.199Z,3.03
2023-05-08T08:47:41.654Z,2.60
2023-05-08T08:50:57.663Z,3.20
2023-05-08T08:54:17.349Z,3.13
2023-05-08T08:57:33.312Z,6.53
2023-05-08T09:00:47.828Z,15.30
2023-05-08T09:04:01.015Z,4.28
2023-05-08T09:07:14.291Z,3.00
2023-05-08T09:10:27.094Z,2.98
2023-05-08T09:13:39.816Z,3.00
2023-05-08T09:16:53.072Z,2.98
2023-05-08T09:20:05.643Z,3.03
2023-05-08T09:23:19.960Z,2.68
2023-05-08T09:26:43.538Z,10.25
2023-05-08T09:30:11.075Z,3.30
2023-05-08T09:36:34.982Z,3.20
2023-05-08T09:39:48.019Z,3.35
2023-05-08T09:43:00.286Z,3.95
2023-05-08T09:46:34.415Z,4.00
2023-05-08T09:49:47.096Z,4.00
2023-05-08T09:52:59.079Z,3.43
2023-05-08T09:56:13.455Z,3.93
2023-05-08T09:59:34.550Z,11.18
2023-05-08T10:02:50.698Z,13.15
2023-05-08T10:06:17.952Z,4.30
2023-05-08T10:09:42.599Z,4.55
2023-05-08T10:12:45.511Z,3.80
2023-05-08T10:16:00.941Z,3.68
2023-05-08T10:19:20.014Z,4.65
2023-05-08T10:22:34.398Z,7.00
2023-05-08T10:25:52.756Z,4.43
2023-05-08T10:29:09.526Z,4.80
2023-05-08T10:32:25.449Z,5.40
2023-05-08T10:35:37.772Z,5.95
2023-05-08T10:38:51.868Z,5.23
2023-05-08T10:42:04.689Z,3.85
2023-05-08T10:45:19.053Z,3.90
2023-05-08T10:48:36.976Z,4.20
2023-05-08T10:51:56.653Z,3.43
2023-05-08T10:55:26.549Z,4.30
2023-05-08T10:58:40.566Z,3.43
2023-05-08T11:01:55.769Z,3.33
2023-05-08T11:05:26.687Z,3.58
2023-05-08T11:08:49.759Z,3.35
2023-05-08T11:12:23.075Z,3.45
2023-05-08T11:15:46.732Z,3.30
2023-05-08T11:19:27.196Z,3.23
2023-05-08T11:22:40.480Z,3.05
2023-05-08T11:25:53.128Z,3.20
2023-05-08T11:29:06.013Z,3.18
2023-05-08T11:32:18.506Z,2.60
2023-05-08T11:35:52.504Z,2.68
2023-05-08T11:39:16.621Z,2.70
2023-05-08T11:42:45.058Z,2.88
2023-05-08T11:45:58.739Z,2.83
2023-05-08T11:49:11.546Z,3.40
2023-05-08T11:52:26.100Z,2.85
2023-05-08T11:55:38.638Z,3.75
2023-05-08T11:58:50.969Z,2.50
2023-05-08T12:02:09.283Z,3.03
2023-05-08T12:05:18.272Z,2.78
2023-05-08T12:08:31.564Z,2.63
2023-05-08T12:11:45.742Z,2.63
2023-05-08T12:14:59.418Z,4.48
2023-05-08T12:18:12.576Z,7.20
2023-05-08T12:21:25.890Z,4.65
2023-05-08T12:24:38.647Z,3.00
2023-05-08T12:27:51.458Z,2.55
2023-05-08T12:31:04.260Z,2.48
2023-05-08T12:34:16.834Z,2.80
2023-05-08T12:37:38.381Z,2.40
2023-05-08T12:40:53.338Z,2.30
2023-05-08T12:44:05.359Z,2.63
2023-05-08T12:47:18.216Z,12.25
2023-05-08T12:50:30.901Z,4.33
2023-05-08T12:53:44.110Z,2.65
2023-05-08T12:56:57.790Z,2.20
2023-05-08T13:00:15.128Z,2.65
2023-05-08T13:03:34.405Z,2.38
2023-05-08T13:06:47.170Z,2.28
2023-05-08T13:10:09.116Z,2.30
2023-05-08T13:13:24.875Z,1.90
2023-05-08T13:16:48.117Z,2.30
2023-05-08T13:20:00.596Z,1.95
2023-05-08T13:23:14.303Z,2.10
2023-05-08T13:26:27.444Z,2.10
2023-05-08T13:29:39.701Z,2.40
2023-05-08T13:32:52.134Z,2.10
2023-05-08T13:36:04.981Z,2.38
2023-05-08T13:39:17.270Z,2.30
2023-05-08T13:42:29.707Z,2.45
2023-05-08T13:45:41.877Z,2.10
2023-05-08T13:48:56.685Z,3.20
2023-05-08T13:52:09.391Z,2.48
2023-05-08T13:55:23.413Z,2.20
2023-05-08T13:58:36.274Z,2.40
2023-05-08T14:01:48.592Z,8.68
2023-05-08T14:05:01.038Z,7.18
2023-05-08T14:08:13.821Z,2.78
2023-05-08T14:11:27.510Z,2.35
2023-05-08T14:14:39.651Z,2.23
2023-05-08T14:17:51.778Z,1.90
2023-05-08T14:21:04.285Z,2.10
2023-05-08T14:24:16.641Z,2.48
2023-05-08T14:27:28.806Z,2.58
2023-05-08T14:30:41.093Z,2.43
2023-05-08T14:33:53.192Z,2.13
2023-05-08T14:37:05.218Z,2.50
2023-05-08T14:40:18.968Z,2.40
2023-05-08T14:43:31.358Z,2.00
2023-05-08T14:46:43.542Z,2.33
2023-05-08T14:49:56.790Z,2.43
2023-05-08T14:53:09.228Z,2.28
2023-05-08T14:56:24.063Z,2.75
2023-05-08T14:59:36.506Z,2.48
2023-05-08T15:02:49.275Z,2.20
2023-05-08T15:06:17.923Z,3.03
2023-05-08T15:09:30.342Z,2.28
2023-05-08T15:12:42.970Z,2.60
2023-05-08T15:15:55.332Z,2.55
2023-05-08T15:19:09.786Z,2.68
2023-05-08T15:22:22.598Z,2.38
2023-05-08T15:25:34.846Z,2.30
2023-05-08T15:28:47.337Z,2.68
2023-05-08T15:31:59.905Z,2.48
2023-05-08T15:35:15.041Z,2.33
2023-05-08T15:38:28.116Z,2.15
2023-05-08T15:41:41.628Z,2.15
2023-05-08T15:44:55.193Z,2.88
2023-05-08T15:48:07.879Z,2.40
2023-05-08T15:51:20.571Z,2.40
2023-05-08T15:54:33.292Z,1.95
2023-05-08T15:57:45.781Z,2.55
2023-05-08T16:00:58.712Z,2.80
2023-05-08T16:04:11.497Z,2.28
2023-05-08T16:07:24.266Z,2.10
2023-05-08T16:10:36.889Z,2.95
2023-05-08T16:13:49.710Z,3.55
2023-05-08T16:17:02.614Z,3.00
2023-05-08T16:20:18.587Z,2.80
2023-05-08T16:23:31.048Z,2.50
2023-05-08T16:26:44.386Z,2.40
2023-05-08T16:29:56.901Z,3.00
2023-05-08T16:33:10.046Z,2.90
2023-05-08T16:36:22.728Z,2.75
2023-05-08T16:39:36.012Z,3.03
2023-05-08T16:42:48.500Z,3.15
2023-05-08T16:46:01.032Z,2.63
2023-05-08T16:49:13.733Z,2.65
2023-05-08T16:52:26.323Z,2.40
2023-05-08T16:55:39.789Z,2.80
2023-05-08T16:58:53.004Z,2.30
2023-05-08T17:02:05.582Z,2.40
2023-05-08T17:05:19.343Z,2.65
2023-05-08T17:08:32.468Z,2.63
2023-05-08T17:11:47.199Z,6.23
2023-05-08T17:15:00.139Z,3.63
2023-05-08T17:18:14.108Z,3.80
2023-05-08T17:21:27.502Z,3.15
2023-05-08T17:24:44.484Z,3.05
2023-05-08T17:27:57.941Z,2.98
2023-05-08T17:31:10.316Z,3.03
2023-05-08T17:34:22.970Z,3.00
2023-05-08T17:37:35.545Z,3.00
2023-05-08T17:40:47.860Z,4.00
2023-05-08T17:44:00.367Z,3.88
2023-05-08T17:47:13.229Z,4.33
2023-05-08T17:50:26.433Z,4.05
2023-05-08T17:53:39.758Z,3.63
2023-05-08T17:56:52.356Z,3.78
2023-05-08T18:00:04.876Z,3.43
2023-05-08T18:03:19.330Z,3.55
2023-05-08T18:06:31.800Z,4.25
2023-05-08T18:09:44.354Z,4.20
2023-05-08T18:12:57.205Z,4.13
2023-05-08T18:16:10.099Z,5.38
2023-05-08T18:19:22.601Z,5.40
2023-05-08T18:22:35.479Z,5.83
2023-05-08T18:25:47.750Z,6.43
2023-05-08T18:28:59.958Z,6.55
2023-05-08T18:32:13.137Z,7.85
2023-05-08T18:35:25.814Z,8.33
2023-05-08T18:38:38.573Z,10.03
2023-05-08T18:41:51.453Z,11.38
2023-05-08T18:45:06.023Z,10.10
2023-05-08T18:48:19.064Z,10.68
2023-05-08T18:51:32.228Z,10.55
2023-05-08T18:54:44.940Z,10.73
2023-05-08T18:57:57.307Z,11.98
2023-05-08T19:01:10.647Z,9.70
2023-05-08T19:04:23.588Z,10.73
2023-05-08T19:07:36.058Z,11.78
2023-05-08T19:10:49.317Z,11.83
2023-05-08T19:14:01.825Z,14.08
2023-05-08T19:17:14.109Z,14.60
2023-05-08T19:20:26.999Z,18.15
2023-05-08T19:23:39.565Z,22.10
2023-05-08T19:26:52.389Z,19.03
2023-05-08T19:30:05.323Z,17.78
2023-05-08T19:33:19.751Z,18.53
2023-05-08T19:36:33.067Z,19.75
2023-05-08T19:39:46.258Z,19.60
2023-05-08T19:42:58.571Z,17.70
2023-05-08T19:46:11.275Z,18.13
2023-05-08T19:49:24.709Z,17.95
2023-05-08T19:52:37.313Z,17.88
2023-05-08T19:55:49.824Z,17.35
2023-05-08T19:59:02.932Z,18.68
2023-05-08T20:02:15.484Z,18.65
2023-05-08T20:05:28.529Z,19.35
2023-05-08T20:08:40.836Z,17.40
2023-05-08T20:11:55.308Z,17.60
2023-05-08T20:15:08.127Z,18.45
2023-05-08T20:18:20.813Z,18.70
2023-05-08T20:21:34.233Z,18.85
2023-05-08T20:24:46.532Z,18.63
2023-05-08T20:27:58.953Z,17.98
2023-05-08T20:31:11.268Z,17.28
2023-05-08T20:34:23.725Z,18.48
2023-05-08T20:37:36.462Z,27.48
2023-05-08T20:40:48.906Z,18.65
2023-05-08T20:44:01.222Z,17.98
2023-05-08T20:47:13.446Z,17.45
2023-05-08T20:50:26.426Z,18.25
2023-05-08T20:53:38.586Z,18.05
2023-05-08T20:56:50.845Z,19.10
2023-05-08T21:00:03.793Z,18.65
2023-05-08T21:03:16.100Z,18.65
2023-05-08T21:06:28.387Z,17.35
2023-05-08T21:09:40.805Z,17.38
2023-05-08T21:12:52.965Z,15.98
2023-05-08T21:16:06.045Z,15.65
2023-05-08T21:19:18.546Z,14.75
2023-05-08T21:22:31.135Z,15.78
2023-05-08T21:25:45.222Z,15.35
2023-05-08T21:28:58.964Z,14.03
2023-05-08T21:32:11.960Z,15.05
2023-05-08T21:35:24.600Z,14.20
2023-05-08T21:38:36.616Z,12.73
2023-05-08T21:41:50.522Z,12.88
2023-05-08T21:45:04.248Z,12.05
2023-05-08T21:48:16.455Z,12.38
2023-05-08T21:51:28.761Z,13.88
2023-05-08T21:54:41.422Z,12.65
2023-05-08T21:57:54.061Z,11.93
2023-05-08T22:01:06.439Z,12.63
2023-05-08T22:04:19.026Z,12.50
2023-05-08T22:07:31.475Z,13.33
2023-05-08T22:10:44.426Z,13.10
2023-05-08T22:13:56.860Z,13.58
2023-05-08T22:17:08.820Z,13.83
2023-05-08T22:20:21.743Z,13.80
2023-05-08T22:23:33.864Z,14.88
2023-05-08T22:26:46.261Z,14.48
2023-05-08T22:30:00.511Z,14.48
2023-05-08T22:33:12.709Z,13.70
2023-05-08T22:36:25.024Z,13.20
2023-05-08T22:39:37.136Z,14.63
2023-05-08T22:42:50.039Z,14.25
2023-05-08T22:46:03.276Z,15.18
2023-05-08T22:49:15.647Z,14.73
2023-05-08T22:52:28.104Z,12.55
2023-05-08T22:55:40.208Z,13.83
2023-05-08T22:58:54.451Z,13.75
2023-05-08T23:02:06.702Z,15.03
2023-05-08T23:05:19.282Z,14.30
2023-05-08T23:08:31.610Z,15.28
2023-05-08T23:11:43.801Z,13.83
2023-05-08T23:14:56.206Z,13.10
2023-05-08T23:18:08.885Z,13.85
2023-05-08T23:21:21.032Z,13.98
2023-05-08T23:24:33.850Z,13.43
2023-05-08T23:27:46.430Z,11.18
2023-05-08T23:30:59.009Z,12.43
2023-05-08T23:34:11.391Z,13.93
2023-05-08T23:37:23.496Z,13.03
2023-05-08T23:40:36.216Z,12.75
2023-05-08T23:43:48.635Z,12.40
2023-05-08T23:47:00.949Z,11.68
2023-05-08T23:50:16.236Z,12.93
2023-05-08T23:53:28.328Z,13.48
2023-05-08T23:56:41.205Z,13.70
2023-05-08T23:59:53.360Z,12.85
